createdAt,value
2023-01-29T00:02:47.438Z,13.80
2023-01-29T00:07:45.700Z,13.77
2023-01-29T00:12:44.274Z,16.20
2023-01-29T00:17:44.891Z,18.70
2023-01-29T00:22:43.401Z,18.70
2023-01-29T00:27:41.932Z,13.43
2023-01-29T00:32:40.773Z,16.07
2023-01-29T00:37:40.653Z,16.20
2023-01-29T00:42:56.587Z,15.37
2023-01-29T00:47:55.142Z,13.87
2023-01-29T00:52:56.217Z,17.13
2023-01-29T00:57:54.773Z,17.93
2023-01-29T01:03:08.195Z,17.17
2023-01-29T01:08:29.046Z,17.40
2023-01-29T01:13:29.343Z,14.27
2023-01-29T01:18:32.393Z,14.03
2023-01-29T01:23:32.296Z,16.70
2023-01-29T01:28:31.157Z,18.10
2023-01-29T01:33:29.704Z,12.60
2023-01-29T01:38:28.248Z,18.87
2023-01-29T01:43:28.185Z,14.97
2023-01-29T01:48:28.794Z,15.03
2023-01-29T01:53:30.997Z,12.80
2023-01-29T01:58:36.229Z,13.20
2023-01-29T02:03:56.740Z,16.20
2023-01-29T02:09:17.585Z,11.77
2023-01-29T02:14:17.984Z,14.07
2023-01-29T02:19:25.743Z,12.13
2023-01-29T02:24:54.710Z,16.10
2023-01-29T02:30:03.160Z,14.90
2023-01-29T02:35:27.441Z,16.63
2023-01-29T02:40:31.678Z,17.07
2023-01-29T02:45:38.799Z,13.70
2023-01-29T02:50:44.138Z,14.90
2023-01-29T02:55:47.658Z,16.33
2023-01-29T03:00:51.109Z,16.67
2023-01-29T03:05:57.144Z,17.13
2023-01-29T03:11:02.660Z,14.90
2023-01-29T03:16:09.019Z,17.90
2023-01-29T03:21:30.196Z,15.17
2023-01-29T03:26:47.079Z,14.73
2023-01-29T03:32:06.987Z,15.00
2023-01-29T03:37:09.626Z,14.50
2023-01-29T03:42:17.690Z,16.30
2023-01-29T03:47:24.685Z,11.30
2023-01-29T03:52:29.999Z,15.70
2023-01-29T03:57:36.445Z,18.80
2023-01-29T04:02:48.720Z,16.80
2023-01-29T04:07:48.137Z,18.67
2023-01-29T04:12:50.546Z,16.70
2023-01-29T04:17:53.089Z,15.10
2023-01-29T04:23:24.134Z,17.20
2023-01-29T04:28:28.622Z,19.43
2023-01-29T04:33:40.498Z,14.40
2023-01-29T04:38:51.879Z,15.30
2023-01-29T04:44:00.991Z,19.53
2023-01-29T04:49:12.077Z,16.63
2023-01-29T04:54:15.868Z,14.73
2023-01-29T04:59:18.591Z,17.77
2023-01-29T05:04:21.122Z,17.03
2023-01-29T05:09:21.232Z,19.53
2023-01-29T05:14:21.208Z,21.20
2023-01-29T05:19:21.071Z,20.07
2023-01-29T05:24:21.696Z,22.47
2023-01-29T05:29:20.259Z,20.33
2023-01-29T05:34:19.827Z,18.20
2023-01-29T05:39:18.367Z,17.70
2023-01-29T05:44:16.839Z,17.30
2023-01-29T05:49:15.765Z,17.67
2023-01-29T05:54:16.299Z,14.67
2023-01-29T05:59:14.940Z,21.83
2023-01-29T06:04:13.449Z,20.97
2023-01-29T06:09:12.862Z,19.23
2023-01-29T06:14:12.754Z,19.20
2023-01-29T06:19:11.320Z,19.67
2023-01-29T06:24:10.519Z,18.97
2023-01-29T06:29:09.039Z,17.30
2023-01-29T06:34:09.813Z,18.73
2023-01-29T06:39:08.065Z,16.67
2023-01-29T06:44:06.568Z,13.50
2023-01-29T06:49:05.068Z,17.07
2023-01-29T06:54:06.707Z,15.50
2023-01-29T06:59:05.259Z,18.37
2023-01-29T07:04:04.046Z,20.07
2023-01-29T07:09:02.920Z,13.57
2023-01-29T07:14:02.495Z,17.30
2023-01-29T07:19:01.073Z,19.17
2023-01-29T07:23:59.758Z,18.83
2023-01-29T07:28:58.077Z,22.27
2023-01-29T07:33:57.919Z,19.83
2023-01-29T07:38:56.496Z,19.03
2023-01-29T07:43:54.659Z,20.17
2023-01-29T07:48:53.607Z,21.10
2023-01-29T07:53:53.956Z,16.60
2023-01-29T07:58:52.711Z,20.53
2023-01-29T08:03:51.502Z,19.47
2023-01-29T08:08:50.118Z,18.17
2023-01-29T08:13:49.695Z,20.93
2023-01-29T08:18:49.172Z,22.53
2023-01-29T08:23:47.328Z,19.13
2023-01-29T08:28:45.913Z,16.90
2023-01-29T08:33:45.820Z,25.00
2023-01-29T08:38:44.000Z,23.47
2023-01-29T08:43:42.868Z,16.70
2023-01-29T08:48:41.389Z,20.80
2023-01-29T08:53:41.046Z,23.40
2023-01-29T08:58:39.632Z,21.97
2023-01-29T09:10:28.762Z,32.83
2023-01-29T09:15:27.590Z,21.50
2023-01-29T09:20:26.090Z,26.43
2023-01-29T09:25:24.625Z,16.17
2023-01-29T09:30:24.499Z,33.73
2023-01-29T09:35:23.199Z,29.77
2023-01-29T09:40:27.670Z,32.90
2023-01-29T09:45:29.775Z,39.10
2023-01-29T09:50:32.303Z,38.17
2023-01-29T09:55:36.042Z,33.57
2023-01-29T10:00:40.674Z,30.13
2023-01-29T10:06:16.601Z,35.27
2023-01-29T10:11:24.622Z,27.07
2023-01-29T10:16:46.442Z,32.63
2023-01-29T10:22:01.379Z,28.60
2023-01-29T10:27:01.135Z,36.90
2023-01-29T10:32:06.289Z,32.20
2023-01-29T10:44:08.262Z,30.27
2023-01-29T10:49:20.063Z,29.50
2023-01-29T10:54:38.854Z,16.97
2023-01-29T10:59:55.970Z,26.30
2023-01-29T11:04:56.338Z,24.00
2023-01-29T11:10:02.110Z,23.87
2023-01-29T11:15:04.196Z,23.67
2023-01-29T11:20:03.880Z,19.60
2023-01-29T11:25:17.891Z,22.07
2023-01-29T11:30:21.946Z,25.27
2023-01-29T11:35:26.947Z,19.77
2023-01-29T11:40:37.575Z,24.80
2023-01-29T11:45:41.241Z,21.90
2023-01-29T11:50:40.832Z,21.60
2023-01-29T11:55:50.086Z,18.77
2023-01-29T12:00:51.948Z,28.00
2023-01-29T12:05:58.496Z,24.27
2023-01-29T12:11:09.618Z,18.00
2023-01-29T12:16:18.628Z,24.67
2023-01-29T12:21:28.010Z,21.40
2023-01-29T12:26:32.717Z,17.43
2023-01-29T12:31:38.272Z,20.33
2023-01-29T12:36:43.215Z,19.70
2023-01-29T12:41:48.122Z,22.83
2023-01-29T12:46:53.103Z,19.27
2023-01-29T12:52:00.941Z,21.93
2023-01-29T12:57:03.163Z,19.00
2023-01-29T13:02:07.047Z,25.03
2023-01-29T13:07:14.399Z,21.67
2023-01-29T13:12:16.184Z,21.40
2023-01-29T13:17:19.307Z,20.67
2023-01-29T13:22:24.682Z,20.10
2023-01-29T13:27:27.305Z,19.10
2023-01-29T13:32:28.017Z,24.63
2023-01-29T13:37:33.176Z,23.97
2023-01-29T13:42:43.333Z,13.20
2023-01-29T13:47:42.177Z,17.00
2023-01-29T13:52:45.552Z,20.90
2023-01-29T13:57:55.686Z,22.67
2023-01-29T14:03:29.964Z,18.73
2023-01-29T14:08:44.872Z,20.57
2023-01-29T14:13:44.607Z,18.90
2023-01-29T14:18:48.847Z,13.07
2023-01-29T14:23:50.813Z,12.10
2023-01-29T14:28:57.821Z,20.50
2023-01-29T14:34:02.295Z,18.83
2023-01-29T14:39:02.251Z,11.47
2023-01-29T14:44:51.624Z,10.87
2023-01-29T14:49:54.610Z,23.53
2023-01-29T14:54:58.960Z,20.60
2023-01-29T15:00:01.868Z,20.90
2023-01-29T15:05:02.108Z,23.40
2023-01-29T15:10:21.997Z,24.20
2023-01-29T15:15:31.498Z,24.57
2023-01-29T15:20:34.918Z,22.87
2023-01-29T15:25:37.902Z,28.80
2023-01-29T15:30:37.276Z,24.20
2023-01-29T15:35:38.293Z,24.20
2023-01-29T15:40:38.230Z,25.30
2023-01-29T15:45:41.583Z,22.23
2023-01-29T15:50:43.649Z,26.30
2023-01-29T15:55:43.968Z,34.00
2023-01-29T16:00:49.064Z,23.00
2023-01-29T16:05:47.692Z,31.37
2023-01-29T16:10:51.813Z,26.70
2023-01-29T16:15:59.970Z,18.70
2023-01-29T16:21:02.134Z,17.03
2023-01-29T16:26:07.336Z,25.43
2023-01-29T16:31:06.251Z,26.77
2023-01-29T16:36:06.160Z,31.10
2023-01-29T16:41:28.857Z,27.33
2023-01-29T16:46:34.045Z,19.40
2023-01-29T16:51:38.376Z,20.50
2023-01-29T16:56:39.750Z,30.83
2023-01-29T17:01:38.651Z,22.93
2023-01-29T17:06:37.518Z,18.30
2023-01-29T17:11:41.959Z,28.80
2023-01-29T17:16:51.714Z,23.27
2023-01-29T17:21:49.904Z,23.00
2023-01-29T17:26:50.225Z,28.77
2023-01-29T17:31:48.768Z,20.73
2023-01-29T17:36:47.481Z,26.20
2023-01-29T17:41:47.462Z,19.07
2023-01-29T17:46:47.837Z,25.93
2023-01-29T17:51:46.080Z,26.77
2023-01-29T17:56:44.639Z,25.17
2023-01-29T18:01:43.432Z,21.40
2023-01-29T18:06:44.571Z,16.23
2023-01-29T18:11:43.055Z,23.23
2023-01-29T18:16:42.713Z,21.73
2023-01-29T18:21:42.358Z,14.70
2023-01-29T18:26:41.007Z,21.80
2023-01-29T18:31:39.660Z,26.37
2023-01-29T18:36:38.357Z,18.23
2023-01-29T18:41:37.854Z,24.70
2023-01-29T18:46:36.335Z,27.03
2023-01-29T18:51:34.476Z,21.23
2023-01-29T18:56:33.007Z,22.43
2023-01-29T19:01:33.012Z,21.20
2023-01-29T19:06:31.620Z,37.50
2023-01-29T19:11:29.859Z,21.60
2023-01-29T19:16:28.208Z,21.13
2023-01-29T19:21:28.760Z,25.63
2023-01-29T19:26:27.410Z,28.70
2023-01-29T19:31:26.217Z,24.40
2023-01-29T19:43:18.021Z,21.90
2023-01-29T19:48:20.528Z,25.80
2023-01-29T19:53:19.051Z,25.70
2023-01-29T19:58:18.599Z,31.97
2023-01-29T20:03:17.611Z,29.60
2023-01-29T20:08:16.135Z,26.77
2023-01-29T20:13:15.020Z,33.77
2023-01-29T20:18:14.915Z,29.27
2023-01-29T20:23:15.528Z,19.83
2023-01-29T20:28:16.764Z,29.27
2023-01-29T20:33:16.660Z,19.60
2023-01-29T20:38:14.821Z,22.63
2023-01-29T20:43:13.387Z,24.03
2023-01-29T20:48:11.748Z,29.40
2023-01-29T20:53:12.400Z,21.20
2023-01-29T20:58:10.924Z,25.23
2023-01-29T21:03:09.658Z,33.27
2023-01-29T21:08:08.175Z,25.73
2023-01-29T21:13:07.682Z,28.90
2023-01-29T21:18:08.343Z,29.47
2023-01-29T21:23:07.389Z,22.70
2023-01-29T21:28:08.365Z,28.97
2023-01-29T21:33:07.372Z,29.37
2023-01-29T21:38:05.945Z,29.00
2023-01-29T21:43:15.776Z,33.80
2023-01-29T21:48:15.660Z,23.30
2023-01-29T21:53:14.272Z,18.77
2023-01-29T21:58:14.387Z,31.60
2023-01-29T22:03:13.120Z,21.70
2023-01-29T22:08:12.632Z,31.67
2023-01-29T22:13:11.288Z,33.30
2023-01-29T22:18:09.835Z,38.27
2023-01-29T22:23:08.312Z,38.27
2023-01-29T22:28:08.012Z,25.63
2023-01-29T22:33:06.492Z,35.63
2023-01-29T22:38:05.392Z,25.90
2023-01-29T22:43:03.950Z,41.17
2023-01-29T22:48:03.475Z,22.03
2023-01-29T22:53:02.164Z,31.47
2023-01-29T22:58:01.468Z,33.80
2023-01-29T23:02:59.971Z,21.87
2023-01-29T23:07:59.872Z,24.07
2023-01-29T23:12:58.582Z,28.63
2023-01-29T23:17:57.433Z,23.37
2023-01-29T23:22:55.944Z,23.00
2023-01-29T23:27:55.802Z,29.07
2023-01-29T23:32:54.313Z,18.73
2023-01-29T23:37:52.855Z,17.37
2023-01-29T23:42:51.357Z,14.83
2023-01-29T23:47:51.208Z,19.50
2023-01-29T23:52:49.720Z,24.23
2023-01-29T23:57:48.774Z,22.30
